createdAt,value
2018-03-14T00:00:16.507Z,99.99
2018-03-14T00:01:15.931Z,99.99
2018-03-14T00:02:15.940Z,99.99
2018-03-14T00:03:15.957Z,99.99
2018-03-14T00:04:15.921Z,99.99
2018-03-14T00:05:16.349Z,99.99
2018-03-14T00:06:15.923Z,99.99
2018-03-14T00:07:16.805Z,99.99
2018-03-14T00:08:15.883Z,99.99
2018-03-14T00:09:15.888Z,99.99
2018-03-14T00:10:16.599Z,99.99
2018-03-14T00:11:15.879Z,99.99
2018-03-14T00:12:15.590Z,99.99
2018-03-14T00:13:15.588Z,99.99
2018-03-14T00:14:15.857Z,99.99
2018-03-14T00:15:17.163Z,99.99
2018-03-14T00:16:15.569Z,99.99
2018-03-14T00:17:15.838Z,99.99
2018-03-14T00:18:15.850Z,99.99
2018-03-14T00:19:15.832Z,99.99
2018-03-14T00:20:16.390Z,99.99
2018-03-14T00:21:15.883Z,99.99
2018-03-14T00:22:15.539Z,99.99
2018-03-14T00:23:15.523Z,99.99
2018-03-14T00:24:15.802Z,99.99
2018-03-14T00:25:16.151Z,99.99
2018-03-14T00:26:15.803Z,99.99
2018-03-14T00:27:15.776Z,99.99
2018-03-14T00:28:15.519Z,99.99
2018-03-14T00:29:15.843Z,99.99
2018-03-14T00:30:16.058Z,99.99
2018-03-14T00:31:15.764Z,99.99
2018-03-14T00:32:15.749Z,99.99
2018-03-14T00:33:15.461Z,99.99
2018-03-14T00:34:15.746Z,99.99
2018-03-14T00:35:15.969Z,99.99
2018-03-14T00:36:15.497Z,99.99
2018-03-14T00:37:15.714Z,99.99
2018-03-14T00:38:15.829Z,99.99
2018-03-14T00:39:15.711Z,99.99
2018-03-14T00:40:16.165Z,99.99
2018-03-14T00:41:15.687Z,99.99
2018-03-14T00:42:15.673Z,99.99
2018-03-14T00:43:15.689Z,99.99
2018-03-14T00:44:15.660Z,99.99
2018-03-14T00:45:16.264Z,99.99
2018-03-14T00:46:16.107Z,99.99
2018-03-14T00:47:15.645Z,99.99
2018-03-14T00:48:15.657Z,99.99
2018-03-14T00:49:15.375Z,99.99
2018-03-14T00:50:16.336Z,99.99
2018-03-14T00:51:15.668Z,99.99
2018-03-14T00:52:15.627Z,99.99
2018-03-14T00:53:15.624Z,99.99
2018-03-14T00:54:15.337Z,99.99
2018-03-14T00:55:16.226Z,99.99
2018-03-14T00:56:15.597Z,99.99
2018-03-14T00:57:15.326Z,99.99
2018-03-14T00:58:15.589Z,99.99
2018-03-14T00:59:15.311Z,99.99
2018-03-14T01:00:15.731Z,99.99
2018-03-14T01:01:15.297Z,99.99
2018-03-14T01:02:16.361Z,99.99
2018-03-14T01:03:15.572Z,99.99
2018-03-14T01:04:15.545Z,99.99
2018-03-14T01:05:16.087Z,99.99
2018-03-14T01:06:15.526Z,99.99
2018-03-14T01:07:15.541Z,99.99
2018-03-14T01:08:15.540Z,99.99
2018-03-14T01:09:16.011Z,99.99
2018-03-14T01:10:16.216Z,99.99
2018-03-14T01:11:15.503Z,99.99
2018-03-14T01:12:15.495Z,99.99
2018-03-14T01:13:15.223Z,99.99
2018-03-14T01:14:15.483Z,99.99
2018-03-14T01:15:15.977Z,99.99
2018-03-14T01:16:15.480Z,99.99
2018-03-14T01:17:16.190Z,99.99
2018-03-14T01:18:15.455Z,99.99
2018-03-14T01:19:15.188Z,99.99
2018-03-14T01:20:16.532Z,99.99
2018-03-14T01:21:15.448Z,99.99
2018-03-14T01:22:15.458Z,99.99
2018-03-14T01:23:15.163Z,99.99
2018-03-14T01:24:15.447Z,99.99
2018-03-14T01:25:16.814Z,99.99
2018-03-14T01:26:15.483Z,99.99
2018-03-14T01:27:15.499Z,99.99
2018-03-14T01:28:15.413Z,99.99
2018-03-14T01:29:15.405Z,99.99
2018-03-14T01:30:15.926Z,99.99
2018-03-14T01:31:15.389Z,99.99
2018-03-14T01:32:15.392Z,99.99
2018-03-14T01:33:16.173Z,99.99
2018-03-14T01:34:15.382Z,99.99
2018-03-14T01:35:15.787Z,99.99
2018-03-14T01:36:15.366Z,99.99
2018-03-14T01:37:15.348Z,99.99
2018-03-14T01:38:15.364Z,99.99
2018-03-14T01:39:15.360Z,99.99
2018-03-14T01:40:15.817Z,99.99
2018-03-14T01:41:15.328Z,99.99
2018-03-14T01:42:15.347Z,99.99
2018-03-14T01:43:15.053Z,99.99
2018-03-14T01:44:15.054Z,99.99
2018-03-14T01:45:16.000Z,99.99
2018-03-14T01:46:15.300Z,99.99
2018-03-14T01:47:15.296Z,99.99
2018-03-14T01:48:15.458Z,99.99
2018-03-14T01:49:15.285Z,99.99
2018-03-14T01:50:15.984Z,99.99
2018-03-14T01:51:15.289Z,99.99
2018-03-14T01:52:15.329Z,99.99
2018-03-14T01:53:15.249Z,99.99
2018-03-14T01:54:15.266Z,99.99
2018-03-14T01:55:16.170Z,99.99
2018-03-14T01:56:16.148Z,99.99
2018-03-14T01:57:14.960Z,99.99
2018-03-14T01:58:14.953Z,99.99
2018-03-14T01:59:15.271Z,99.99
2018-03-14T02:00:16.396Z,99.99
2018-03-14T02:01:15.237Z,99.99
2018-03-14T02:02:15.202Z,99.99
2018-03-14T02:03:15.207Z,99.99
2018-03-14T02:04:15.183Z,99.99
2018-03-14T02:05:15.873Z,99.99
2018-03-14T02:06:15.191Z,99.99
2018-03-14T02:07:15.978Z,99.99
2018-03-14T02:08:15.171Z,99.99
2018-03-14T02:09:15.152Z,99.99
2018-03-14T02:10:15.997Z,99.99
2018-03-14T02:11:14.879Z,99.99
2018-03-14T02:12:14.868Z,99.99
2018-03-14T02:13:14.867Z,99.99
2018-03-14T02:14:15.127Z,99.99
2018-03-14T02:15:15.489Z,99.99
2018-03-14T02:16:15.117Z,99.99
2018-03-14T02:17:15.131Z,99.99
2018-03-14T02:18:14.829Z,99.99
2018-03-14T02:19:15.756Z,99.99
2018-03-14T02:20:16.203Z,99.99
2018-03-14T02:21:15.091Z,99.99
2018-03-14T02:22:15.127Z,99.99
2018-03-14T02:23:15.075Z,99.99
2018-03-14T02:24:15.075Z,99.99
2018-03-14T02:25:15.562Z,99.99
2018-03-14T02:26:15.052Z,99.99
2018-03-14T02:27:15.721Z,99.99
2018-03-14T02:28:15.043Z,99.99
2018-03-14T02:29:15.032Z,99.99
2018-03-14T02:30:15.898Z,99.99
2018-03-14T02:31:15.019Z,99.99
2018-03-14T02:32:15.009Z,99.99
2018-03-14T02:33:15.024Z,99.99
2018-03-14T02:34:14.731Z,99.99
2018-03-14T02:35:15.731Z,99.99
2018-03-14T02:36:14.987Z,99.99
2018-03-14T02:37:14.990Z,99.99
2018-03-14T02:38:14.966Z,99.99
2018-03-14T02:39:14.980Z,99.99
2018-03-14T02:40:16.053Z,99.99
2018-03-14T02:41:14.946Z,99.99
2018-03-14T02:42:15.706Z,99.99
2018-03-14T02:43:14.945Z,99.99
2018-03-14T02:44:14.988Z,99.99
2018-03-14T02:45:16.076Z,99.99
2018-03-14T02:46:14.914Z,99.99
2018-03-14T02:47:14.897Z,99.99
2018-03-14T02:48:14.900Z,99.99
2018-03-14T02:49:14.887Z,99.99
2018-03-14T02:50:15.766Z,99.99
2018-03-14T02:51:14.872Z,99.99
2018-03-14T02:52:14.866Z,99.99
2018-03-14T02:53:14.865Z,99.99
2018-03-14T02:54:14.863Z,99.99
2018-03-14T02:55:15.761Z,99.99
2018-03-14T02:56:14.848Z,99.99
2018-03-14T02:57:14.837Z,99.99
2018-03-14T02:58:14.832Z,99.99
2018-03-14T02:59:14.821Z,99.99
2018-03-14T03:00:15.798Z,99.99
2018-03-14T03:01:14.565Z,99.99
2018-03-14T03:02:14.803Z,99.99
2018-03-14T03:03:14.795Z,99.99
2018-03-14T03:04:14.795Z,99.99
2018-03-14T03:05:15.693Z,99.99
2018-03-14T03:06:14.779Z,99.99
2018-03-14T03:07:14.769Z,99.99
2018-03-14T03:08:14.769Z,99.99
2018-03-14T03:09:14.758Z,99.99
2018-03-14T03:10:15.535Z,99.99
2018-03-14T03:11:14.489Z,99.99
2018-03-14T03:12:14.740Z,99.99
2018-03-14T03:13:14.735Z,99.99
2018-03-14T03:14:14.725Z,99.99
2018-03-14T03:15:15.343Z,99.99
2018-03-14T03:16:14.715Z,99.99
2018-03-14T03:17:14.452Z,99.99
2018-03-14T03:18:14.705Z,99.99
2018-03-14T03:19:14.703Z,99.99
2018-03-14T03:20:15.480Z,99.99
2018-03-14T03:21:14.689Z,99.99
2018-03-14T03:22:14.672Z,99.99
2018-03-14T03:23:14.718Z,99.99
2018-03-14T03:24:14.660Z,99.99
2018-03-14T03:25:15.863Z,99.99
2018-03-14T03:26:14.394Z,99.99
2018-03-14T03:27:14.654Z,99.99
2018-03-14T03:28:14.645Z,99.99
2018-03-14T03:29:14.632Z,99.99
2018-03-14T03:30:15.601Z,99.99
2018-03-14T03:31:14.617Z,99.99
2018-03-14T03:32:14.609Z,99.99
2018-03-14T03:33:14.601Z,99.99
2018-03-14T03:34:14.603Z,99.99
2018-03-14T03:35:15.833Z,99.99
2018-03-14T03:36:14.329Z,99.99
2018-03-14T03:37:14.574Z,99.99
2018-03-14T03:38:14.572Z,99.99
2018-03-14T03:39:14.559Z,99.99
2018-03-14T03:40:15.578Z,99.99
2018-03-14T03:41:14.546Z,99.99
2018-03-14T03:42:14.539Z,99.99
2018-03-14T03:43:14.535Z,99.99
2018-03-14T03:44:14.537Z,99.99
2018-03-14T03:45:15.124Z,99.99
2018-03-14T03:46:14.262Z,99.99
2018-03-14T03:47:14.508Z,99.99
2018-03-14T03:48:14.522Z,99.99
2018-03-14T03:49:14.494Z,99.99
2018-03-14T03:50:15.504Z,99.99
2018-03-14T03:51:14.233Z,99.99
2018-03-14T03:52:14.482Z,99.99
2018-03-14T03:53:14.481Z,99.99
2018-03-14T03:54:14.475Z,99.99
2018-03-14T03:55:15.939Z,99.99
2018-03-14T03:56:14.458Z,99.99
2018-03-14T03:57:14.456Z,99.99
2018-03-14T03:58:14.437Z,99.99
2018-03-14T03:59:14.443Z,99.99
2018-03-14T04:00:15.681Z,99.99
2018-03-14T04:01:14.416Z,99.99
2018-03-14T04:02:14.412Z,99.99
2018-03-14T04:03:14.407Z,99.99
2018-03-14T04:04:14.144Z,99.99
2018-03-14T04:05:15.168Z,99.99
2018-03-14T04:06:14.399Z,99.99
2018-03-14T04:07:14.391Z,99.99
2018-03-14T04:08:15.219Z,99.99
2018-03-14T04:09:14.365Z,99.99
2018-03-14T04:10:15.767Z,99.99
2018-03-14T04:11:14.109Z,99.99
2018-03-14T04:12:14.348Z,99.99
2018-03-14T04:13:14.346Z,99.99
2018-03-14T04:14:14.335Z,99.99
2018-03-14T04:15:14.972Z,99.99
2018-03-14T04:16:14.317Z,99.99
2018-03-14T04:17:14.319Z,99.99
2018-03-14T04:18:14.307Z,99.99
2018-03-14T04:19:14.297Z,99.99
2018-03-14T04:20:15.724Z,99.99
2018-03-14T04:21:14.033Z,99.99
2018-03-14T04:22:14.025Z,99.99
2018-03-14T04:23:14.327Z,99.99
2018-03-14T04:24:14.264Z,99.99
2018-03-14T04:25:15.445Z,99.99
2018-03-14T04:26:14.255Z,99.97
2018-03-14T04:27:14.001Z,99.11
2018-03-14T04:28:14.252Z,99.68
2018-03-14T04:29:14.233Z,99.4
2018-03-14T04:30:15.427Z,98.92
2018-03-14T04:31:13.965Z,99.58
2018-03-14T04:32:13.967Z,98.92
2018-03-14T04:33:14.206Z,98.73
2018-03-14T04:34:14.207Z,99.4
2018-03-14T04:35:15.744Z,99.4
2018-03-14T04:36:14.203Z,99.11
2018-03-14T04:37:14.184Z,99.58
2018-03-14T04:38:15.521Z,99.58
2018-03-14T04:39:13.914Z,99.11
2018-03-14T04:40:15.696Z,99.77
2018-03-14T04:41:14.153Z,99.58
2018-03-14T04:42:14.142Z,99.3
2018-03-14T04:43:14.135Z,99.97
2018-03-14T04:44:13.876Z,99.99
2018-03-14T04:45:15.752Z,99.99
2018-03-14T04:46:13.865Z,99.99
2018-03-14T04:47:14.119Z,99.99
2018-03-14T04:48:14.109Z,99.99
2018-03-14T04:49:14.102Z,99.99
2018-03-14T04:50:15.037Z,99.99
2018-03-14T04:51:14.086Z,99.99
2018-03-14T04:52:14.191Z,99.99
2018-03-14T04:53:14.072Z,99.99
2018-03-14T04:54:14.069Z,99.99
2018-03-14T04:55:15.172Z,99.99
2018-03-14T04:56:14.056Z,99.99
2018-03-14T04:57:14.043Z,99.99
2018-03-14T04:58:14.036Z,99.99
2018-03-14T04:59:14.034Z,99.99
2018-03-14T05:00:15.318Z,99.99
2018-03-14T05:01:14.017Z,99.99
2018-03-14T05:02:14.040Z,99.99
2018-03-14T05:03:13.749Z,99.99
2018-03-14T05:04:14.004Z,99.99
2018-03-14T05:05:15.203Z,99.99
2018-03-14T05:06:13.990Z,99.99
2018-03-14T05:07:13.724Z,99.99
2018-03-14T05:08:13.973Z,99.99
2018-03-14T05:09:13.984Z,99.99
2018-03-14T05:10:14.692Z,99.99
2018-03-14T05:11:13.701Z,99.99
2018-03-14T05:12:13.967Z,99.99
2018-03-14T05:13:13.954Z,99.99
2018-03-14T05:14:14.043Z,99.99
2018-03-14T05:15:15.464Z,99.99
2018-03-14T05:16:14.012Z,99.99
2018-03-14T05:17:13.920Z,99.99
2018-03-14T05:18:14.003Z,99.99
2018-03-14T05:19:13.953Z,99.99
2018-03-14T05:20:15.226Z,99.99
2018-03-14T05:21:13.946Z,99.99
2018-03-14T05:22:13.882Z,99.99
2018-03-14T05:23:13.619Z,99.99
2018-03-14T05:24:13.916Z,99.99
2018-03-14T05:25:14.724Z,99.99
2018-03-14T05:26:13.968Z,99.99
2018-03-14T05:27:13.844Z,99.99
2018-03-14T05:28:13.890Z,99.99
2018-03-14T05:29:13.959Z,99.99
2018-03-14T05:30:14.731Z,99.99
2018-03-14T05:31:13.821Z,99.99
2018-03-14T05:32:13.821Z,99.99
2018-03-14T05:33:13.806Z,99.99
2018-03-14T05:34:13.800Z,99.99
2018-03-14T05:35:14.170Z,99.99
2018-03-14T05:36:13.790Z,99.99
2018-03-14T05:37:13.523Z,99.99
2018-03-14T05:38:13.771Z,99.99
2018-03-14T05:39:13.763Z,99.99
2018-03-14T05:40:15.177Z,99.99
2018-03-14T05:41:13.752Z,99.99
2018-03-14T05:42:13.744Z,99.99
2018-03-14T05:43:13.734Z,99.99
2018-03-14T05:44:13.728Z,99.99
2018-03-14T05:45:14.949Z,99.99
2018-03-14T05:46:13.715Z,99.99
2018-03-14T05:47:13.706Z,99.99
2018-03-14T05:48:13.706Z,99.99
2018-03-14T05:49:13.698Z,99.99
2018-03-14T05:50:14.978Z,99.99
2018-03-14T05:51:13.682Z,99.99
2018-03-14T05:52:13.423Z,99.99
2018-03-14T05:53:13.670Z,99.99
2018-03-14T05:54:13.662Z,99.99
2018-03-14T05:55:14.478Z,99.99
2018-03-14T05:56:13.656Z,99.99
2018-03-14T05:57:13.644Z,99.99
2018-03-14T05:58:13.641Z,99.99
2018-03-14T05:59:13.626Z,99.99
2018-03-14T06:00:14.879Z,99.99
2018-03-14T06:01:13.614Z,99.99
2018-03-14T06:02:13.608Z,99.99
2018-03-14T06:03:13.602Z,99.99
2018-03-14T06:04:13.597Z,99.99
2018-03-14T06:05:14.388Z,99.99
2018-03-14T06:06:13.586Z,99.99
2018-03-14T06:07:13.596Z,99.99
2018-03-14T06:08:13.584Z,99.99
2018-03-14T06:09:13.307Z,99.99
2018-03-14T06:10:15.114Z,99.99
2018-03-14T06:11:13.294Z,99.99
2018-03-14T06:12:13.548Z,99.99
2018-03-14T06:13:13.539Z,99.99
2018-03-14T06:14:13.533Z,99.99
2018-03-14T06:15:14.616Z,99.99
2018-03-14T06:16:13.531Z,99.99
2018-03-14T06:17:13.530Z,99.99
2018-03-14T06:18:13.501Z,99.99
2018-03-14T06:19:13.496Z,99.99
2018-03-14T06:20:14.720Z,99.99
2018-03-14T06:21:13.497Z,99.99
2018-03-14T06:22:13.476Z,99.99
2018-03-14T06:23:13.515Z,99.99
2018-03-14T06:24:13.211Z,99.99
2018-03-14T06:25:14.716Z,99.99
2018-03-14T06:26:13.463Z,99.99
2018-03-14T06:27:13.452Z,99.99
2018-03-14T06:28:13.450Z,99.99
2018-03-14T06:29:13.439Z,99.99
2018-03-14T06:30:14.430Z,99.99
2018-03-14T06:31:13.422Z,99.99
2018-03-14T06:32:13.425Z,99.99
2018-03-14T06:33:13.423Z,99.99
2018-03-14T06:34:13.153Z,99.99
2018-03-14T06:35:14.897Z,99.99
2018-03-14T06:36:13.142Z,99.99
2018-03-14T06:37:13.458Z,99.99
2018-03-14T06:38:13.140Z,99.99
2018-03-14T06:39:13.370Z,99.99
2018-03-14T06:40:14.210Z,99.99
2018-03-14T06:41:13.116Z,99.99
2018-03-14T06:42:13.362Z,99.99
2018-03-14T06:43:13.348Z,99.83
2018-03-14T06:44:13.347Z,98.59
2018-03-14T06:45:14.880Z,98.59
2018-03-14T06:46:13.339Z,99.16
2018-03-14T06:47:13.327Z,98.4
2018-03-14T06:48:13.330Z,99.26
2018-03-14T06:49:13.311Z,99.35
2018-03-14T06:50:14.385Z,99.54
2018-03-14T06:51:13.299Z,99.99
2018-03-14T06:52:13.295Z,99.99
2018-03-14T06:53:13.289Z,99.4
2018-03-14T06:54:13.282Z,99.3
2018-03-14T06:55:14.639Z,97.69
2018-03-14T06:56:13.021Z,97.12
2018-03-14T06:57:13.022Z,97.5
2018-03-14T06:58:13.017Z,96.65
2018-03-14T06:59:13.261Z,96.45
2018-03-14T07:00:14.285Z,94.93
2018-03-14T07:01:13.248Z,94.65
2018-03-14T07:02:13.239Z,95.6
2018-03-14T07:03:13.231Z,95.79
2018-03-14T07:04:13.235Z,96.45
2018-03-14T07:05:14.588Z,96.93
2018-03-14T07:06:12.976Z,96.45
2018-03-14T07:07:12.960Z,96.36
2018-03-14T07:08:13.220Z,97.03
2018-03-14T07:09:13.362Z,96.36
2018-03-14T07:10:14.069Z,96.84
2018-03-14T07:11:13.199Z,97.5
2018-03-14T07:12:13.181Z,96.65
2018-03-14T07:13:12.924Z,96.93
2018-03-14T07:14:12.934Z,95.41
2018-03-14T07:15:14.444Z,95.7
2018-03-14T07:16:13.173Z,96.03
2018-03-14T07:17:13.164Z,95.7
2018-03-14T07:18:12.898Z,96.36
2018-03-14T07:19:13.161Z,95.75
2018-03-14T07:20:14.042Z,94.51
2018-03-14T07:21:12.883Z,93.18
2018-03-14T07:22:13.142Z,93.46
2018-03-14T07:23:13.140Z,93.46
2018-03-14T07:24:14.045Z,93.84
2018-03-14T07:25:14.486Z,93.46
2018-03-14T07:26:13.121Z,94.22
2018-03-14T07:27:13.122Z,93.37
2018-03-14T07:28:12.852Z,93.27
2018-03-14T07:29:13.100Z,92.51
2018-03-14T07:30:14.468Z,91.47
2018-03-14T07:31:13.090Z,90.8
2018-03-14T07:32:13.096Z,89.75
2018-03-14T07:33:13.099Z,88.04
2018-03-14T07:34:13.089Z,87.19
2018-03-14T07:35:13.828Z,88.9
2018-03-14T07:36:12.815Z,90.61
2018-03-14T07:37:13.067Z,89.66
2018-03-14T07:38:13.059Z,88.23
2018-03-14T07:39:14.958Z,87.85
2018-03-14T07:40:14.340Z,88.42
2018-03-14T07:41:13.041Z,88.71
2018-03-14T07:42:12.788Z,88.9
2018-03-14T07:43:13.039Z,88.23
2018-03-14T07:44:13.028Z,87.61
2018-03-14T07:45:14.110Z,86.76
2018-03-14T07:46:13.023Z,86.09
2018-03-14T07:47:13.019Z,84.56
2018-03-14T07:48:12.762Z,84.85
2018-03-14T07:49:13.012Z,84.09
2018-03-14T07:50:14.293Z,83.81
2018-03-14T07:51:13.010Z,83.04
2018-03-14T07:52:12.744Z,82.86
2018-03-14T07:53:12.992Z,82.86
2018-03-14T07:54:12.987Z,82.48
2018-03-14T07:55:14.182Z,81.9
2018-03-14T07:56:12.985Z,81.62
2018-03-14T07:57:12.975Z,81.05
2018-03-14T07:58:12.974Z,80
2018-03-14T07:59:12.720Z,80.76
2018-03-14T08:00:14.304Z,80.66
2018-03-14T08:01:13.097Z,78.67
2018-03-14T08:02:12.956Z,78.67
2018-03-14T08:03:12.956Z,77.91
2018-03-14T08:04:12.952Z,77.91
2018-03-14T08:05:13.675Z,78.1
2018-03-14T08:06:12.683Z,77.91
2018-03-14T08:07:12.680Z,77.91
2018-03-14T08:08:12.934Z,78.67
2018-03-14T08:09:12.931Z,78.96
2018-03-14T08:10:14.207Z,78
2018-03-14T08:11:12.926Z,77.53
2018-03-14T08:12:12.953Z,76.71
2018-03-14T08:13:12.920Z,76.39
2018-03-14T08:14:12.925Z,76.61
2018-03-14T08:15:13.423Z,77.09
2018-03-14T08:16:12.647Z,76.04
2018-03-14T08:17:12.898Z,75.38
2018-03-14T08:18:12.637Z,74.62
2018-03-14T08:19:12.637Z,73.85
2018-03-14T08:20:13.857Z,74.62
2018-03-14T08:21:12.882Z,74.24
2018-03-14T08:22:12.879Z,74.04
2018-03-14T08:23:12.619Z,74.24
2018-03-14T08:24:12.875Z,73.28
2018-03-14T08:25:13.884Z,72.05
2018-03-14T08:26:12.618Z,71.03
2018-03-14T08:27:12.862Z,71.13
2018-03-14T08:28:12.860Z,69.99
2018-03-14T08:29:12.859Z,69.57
2018-03-14T08:30:13.596Z,70.33
2018-03-14T08:31:12.859Z,69.48
2018-03-14T08:32:12.590Z,67.76
2018-03-14T08:33:12.847Z,69.29
2018-03-14T08:34:12.841Z,70.43
2018-03-14T08:35:13.643Z,70.14
2018-03-14T08:36:12.832Z,69.76
2018-03-14T08:37:12.881Z,69.67
2018-03-14T08:38:12.828Z,69.38
2018-03-14T08:39:12.821Z,68.81
2018-03-14T08:40:13.438Z,69.32
2018-03-14T08:41:12.817Z,68.84
2018-03-14T08:42:12.848Z,68.52
2018-03-14T08:43:12.569Z,69.13
2018-03-14T08:44:12.817Z,68.84
2018-03-14T08:45:14.122Z,68.46
2018-03-14T08:46:12.810Z,67.99
2018-03-14T08:47:12.799Z,68.94
2018-03-14T08:48:12.541Z,67.99
2018-03-14T08:49:12.545Z,67.55
2018-03-14T08:50:14.022Z,66.59
2018-03-14T08:51:12.786Z,66.31
2018-03-14T08:52:12.787Z,67.83
2018-03-14T08:53:12.781Z,66.69
2018-03-14T08:54:12.779Z,67.41
2018-03-14T08:55:14.154Z,67.13
2018-03-14T08:56:12.776Z,65.99
2018-03-14T08:57:12.532Z,66.85
2018-03-14T08:58:12.767Z,65.92
2018-03-14T08:59:12.529Z,65.61
2018-03-14T09:00:13.950Z,67.16
2018-03-14T09:01:12.762Z,66.78
2018-03-14T09:02:12.759Z,66.46
2018-03-14T09:03:12.503Z,67.74
2018-03-14T09:04:12.761Z,68.59
2018-03-14T09:05:14.112Z,66.31
2018-03-14T09:06:12.747Z,64.59
2018-03-14T09:07:12.745Z,63.67
2018-03-14T09:08:12.742Z,64.05
2018-03-14T09:09:12.741Z,63.76
2018-03-14T09:10:13.347Z,62.24
2018-03-14T09:11:12.504Z,61.76
2018-03-14T09:12:12.488Z,60.52
2018-03-14T09:13:12.491Z,59.19
2018-03-14T09:14:12.733Z,58.43
2018-03-14T09:15:13.916Z,58.62
2018-03-14T09:16:12.784Z,59.67
2018-03-14T09:17:12.733Z,58.52
2018-03-14T09:18:12.725Z,59.67
2018-03-14T09:19:12.720Z,59.09
2018-03-14T09:20:13.786Z,59.67
2018-03-14T09:21:12.491Z,58.59
2018-03-14T09:22:12.473Z,58.11
2018-03-14T09:23:12.483Z,58.69
2018-03-14T09:24:12.712Z,58.97
2018-03-14T09:25:13.437Z,59.06
2018-03-14T09:26:12.710Z,59.35
2018-03-14T09:27:12.704Z,59.45
2018-03-14T09:28:12.707Z,58.56
2018-03-14T09:29:12.696Z,59.13
2018-03-14T09:30:13.693Z,58.84
2018-03-14T09:31:12.703Z,59.61
2018-03-14T09:32:12.695Z,59.42
2018-03-14T09:33:12.706Z,58.08
2018-03-14T09:34:12.434Z,58.18
2018-03-14T09:35:14.193Z,58.56
2018-03-14T09:36:12.682Z,58.65
2018-03-14T09:37:12.676Z,59.03
2018-03-14T09:38:12.674Z,58.65
2018-03-14T09:39:12.673Z,58.75
2018-03-14T09:40:16.565Z,58.18
2018-03-14T09:41:12.422Z,58.37
2018-03-14T09:42:12.669Z,58.65
2018-03-14T09:43:12.424Z,58.18
2018-03-14T09:44:12.665Z,57.6
2018-03-14T09:45:14.193Z,58.56
2018-03-14T09:46:12.721Z,56.97
2018-03-14T09:47:12.652Z,56.11
2018-03-14T09:48:12.647Z,55.92
2018-03-14T09:49:12.656Z,56.68
2018-03-14T09:50:14.057Z,56.02
2018-03-14T09:51:12.644Z,56.94
2018-03-14T09:52:12.636Z,56.94
2018-03-14T09:53:12.636Z,56.85
2018-03-14T09:54:12.741Z,56.85
2018-03-14T09:55:13.293Z,57.13
2018-03-14T09:56:12.369Z,57.42
2018-03-14T09:57:12.662Z,56.49
2018-03-14T09:58:12.369Z,56.02
2018-03-14T09:59:12.615Z,56.94
2018-03-14T10:00:13.893Z,57.32
2018-03-14T10:01:12.618Z,58.37
2018-03-14T10:02:12.619Z,58.84
2018-03-14T10:03:12.606Z,59.51
2018-03-14T10:04:12.600Z,59.61
2018-03-14T10:05:13.289Z,60.85
2018-03-14T10:06:12.597Z,59.64
2018-03-14T10:07:12.594Z,57.16
2018-03-14T10:08:12.587Z,56.59
2018-03-14T10:09:12.599Z,56.21
2018-03-14T10:10:13.165Z,56.3
2018-03-14T10:11:12.324Z,55.54
2018-03-14T10:12:12.326Z,55.73
2018-03-14T10:13:12.573Z,55.09
2018-03-14T10:14:12.576Z,54.8
2018-03-14T10:15:13.887Z,55.63
2018-03-14T10:16:12.321Z,55.57
2018-03-14T10:17:12.579Z,55.47
2018-03-14T10:18:12.695Z,56.49
2018-03-14T10:19:12.647Z,55.92
2018-03-14T10:20:14.042Z,56.59
2018-03-14T10:21:12.580Z,56.02
2018-03-14T10:22:12.591Z,57.16
2018-03-14T10:23:12.545Z,57.35
2018-03-14T10:24:12.545Z,58.02
2018-03-14T10:25:13.696Z,59.06
2018-03-14T10:26:12.542Z,59.83
2018-03-14T10:27:12.549Z,59.86
2018-03-14T10:28:12.545Z,58.72
2018-03-14T10:58:57.319Z,52.36
2018-03-14T10:59:57.522Z,52.09
2018-03-14T11:00:57.511Z,52.36
2018-03-14T11:01:57.503Z,51.97
2018-03-14T11:02:57.494Z,52.64
2018-03-14T11:03:57.239Z,52.83
2018-03-14T11:04:57.242Z,53.56
2018-03-14T11:05:57.229Z,54.24
2018-03-14T11:06:57.483Z,54.8
2018-03-14T11:07:57.480Z,54.61
2018-03-14T11:08:57.480Z,55
2018-03-14T11:09:57.465Z,55.09
2018-03-14T11:10:57.251Z,54.9
2018-03-14T11:11:57.456Z,55.09
2018-03-14T11:12:57.455Z,55.16
2018-03-14T11:13:57.446Z,55.44
2018-03-14T11:14:57.442Z,57.64
2018-03-14T11:15:57.519Z,58.21
2018-03-14T11:16:57.209Z,56.87
2018-03-14T11:17:57.434Z,56.68
2018-03-14T11:18:57.432Z,56.68
2018-03-14T11:19:57.430Z,57.07
2018-03-14T11:20:57.441Z,56.59
2018-03-14T11:21:57.188Z,57.35
2018-03-14T11:22:57.188Z,56.87
2018-03-14T11:23:57.408Z,56.97
2018-03-14T11:24:57.407Z,57.32
2018-03-14T11:25:57.410Z,57.89
2018-03-14T11:26:57.410Z,57.51
2018-03-14T11:27:57.409Z,57.6
2018-03-14T11:28:57.436Z,57.89
2018-03-14T11:29:57.393Z,58.11
2018-03-14T11:30:57.391Z,58.11
2018-03-14T11:31:57.388Z,59.16
2018-03-14T11:32:57.138Z,58.52
2018-03-14T11:33:57.380Z,57.67
2018-03-14T11:34:57.380Z,57.19
2018-03-14T11:35:57.373Z,57.19
2018-03-14T11:36:57.375Z,57.67
2018-03-14T11:37:57.367Z,57.76
2018-03-14T11:38:57.368Z,56.14
2018-03-14T11:39:57.370Z,55.66
2018-03-14T11:40:57.358Z,56.33
2018-03-14T11:41:57.356Z,56.43
2018-03-14T11:42:57.099Z,56.62
2018-03-14T11:43:57.397Z,57.19
2018-03-14T11:44:57.159Z,57.07
2018-03-14T11:45:57.408Z,57.48
2018-03-14T11:46:57.340Z,57.26
2018-03-14T11:47:57.339Z,57.35
2018-03-14T11:48:57.340Z,57.45
2018-03-14T11:49:57.348Z,56.97
2018-03-14T11:50:57.082Z,57.45
2018-03-14T11:51:57.075Z,56.97
2018-03-14T11:52:57.328Z,56.97
2018-03-14T11:53:57.323Z,56.9
2018-03-14T11:54:57.323Z,57.07
2018-03-14T11:55:57.315Z,57.38
2018-03-14T11:56:57.316Z,57.28
2018-03-14T11:57:57.057Z,56.71
2018-03-14T11:58:57.320Z,56.04
2018-03-14T11:59:57.051Z,55.95
2018-03-14T12:00:57.047Z,56.52
2018-03-14T12:01:57.310Z,56.68
2018-03-14T12:02:57.314Z,56.59
2018-03-14T12:03:57.307Z,56.52
2018-03-14T12:04:57.035Z,56.14
2018-03-14T12:05:57.295Z,56.04
2018-03-14T12:06:57.292Z,56.59
2018-03-14T12:07:57.027Z,56.59
2018-03-14T12:08:57.286Z,56.78
2018-03-14T12:09:57.285Z,56.68
2018-03-14T12:10:57.290Z,57.16
2018-03-14T12:11:57.279Z,56.62
2018-03-14T12:12:57.268Z,56.81
2018-03-14T12:13:57.276Z,57.09
2018-03-14T12:14:57.278Z,57.86
2018-03-14T12:15:57.049Z,58.24
2018-03-14T12:16:57.270Z,57.86
2018-03-14T12:17:57.268Z,57.5
2018-03-14T12:18:57.320Z,56.65
2018-03-14T12:19:57.320Z,56.26
2018-03-14T12:20:57.325Z,55.31
2018-03-14T12:21:57.251Z,54.96
2018-03-14T12:22:57.254Z,55.05
2018-03-14T12:23:57.260Z,54
2018-03-14T12:24:57.260Z,54.19
2018-03-14T12:25:57.284Z,53.33
2018-03-14T12:26:57.242Z,52.57
2018-03-14T12:27:57.244Z,52.57
2018-03-14T12:28:57.284Z,52.57
2018-03-14T12:29:57.295Z,52.57
2018-03-14T12:30:57.244Z,53.97
2018-03-14T12:31:57.242Z,54.07
2018-03-14T12:32:56.972Z,53.69
2018-03-14T12:33:56.964Z,54.93
2018-03-14T12:34:57.225Z,54.64
2018-03-14T12:35:57.226Z,54.17
2018-03-14T12:36:57.272Z,54.07
2018-03-14T12:37:57.218Z,54.17
2018-03-14T12:38:57.224Z,54.55
2018-03-14T12:39:57.215Z,55.41
2018-03-14T12:40:57.207Z,55
2018-03-14T12:41:57.217Z,55.6
2018-03-14T12:42:57.227Z,55.02
2018-03-14T12:43:57.253Z,55.41
2018-03-14T12:44:57.213Z,55
2018-03-14T12:45:57.199Z,55.47
2018-03-14T12:46:57.203Z,55.66
2018-03-14T12:47:57.217Z,55.76
2018-03-14T12:48:57.185Z,55.69
2018-03-14T12:49:57.181Z,55.31
2018-03-14T12:50:57.190Z,55.12
2018-03-14T12:51:57.182Z,55.21
2018-03-14T12:52:57.192Z,55.69
2018-03-14T12:53:56.921Z,55.88
2018-03-14T12:54:57.172Z,56.36
2018-03-14T12:55:57.172Z,55.6
2018-03-14T12:56:57.174Z,55.12
2018-03-14T12:57:57.170Z,55.21
2018-03-14T12:58:56.910Z,55.02
2018-03-14T12:59:57.179Z,54.36
2018-03-14T13:00:57.160Z,54.55
2018-03-14T13:01:57.161Z,55.02
2018-03-14T13:02:57.162Z,54.67
2018-03-14T13:03:57.164Z,54.48
2018-03-14T13:04:57.174Z,54.1
2018-03-14T13:05:57.166Z,53.43
2018-03-14T13:06:57.161Z,53.72
2018-03-14T13:07:56.892Z,54
2018-03-14T13:08:57.163Z,53.53
2018-03-14T13:09:57.143Z,53.24
2018-03-14T13:10:57.141Z,54
2018-03-14T13:11:56.883Z,54.1
2018-03-14T13:12:57.132Z,54.26
2018-03-14T13:13:57.143Z,55.02
2018-03-14T13:14:57.133Z,55.02
2018-03-14T13:15:57.128Z,55.6
2018-03-14T13:16:57.147Z,55.79
2018-03-14T13:17:57.127Z,55.98
2018-03-14T13:18:57.122Z,55.57
2018-03-14T13:19:57.123Z,55.76
2018-03-14T13:20:57.124Z,56.24
2018-03-14T13:21:57.123Z,55.98
2018-03-14T13:22:57.123Z,55.69
2018-03-14T13:23:57.113Z,55.6